Terminal Aerodrome Forecast
Issued by NWS Wilmington, OH

Home | Current Version | Previous Version | Text Only | Print | Product List | Glossary On
Versions: 1 2 3 4 5 6 7 8 9 10 11 12 13 14 15 16 17 18 19
000
FTUS41 KILN 272300
TAFDAY
TAF
KDAY 272340Z 2800/2824 01005KT P6SM SCT250
     FM281300 06005KT P6SM FEW025 SCT070
     FM282300 07005KT P6SM SCT080=

USA.gov is the U.S. government's official web portal to all federal, state and local government web resources and services.